Dades meteomassalio
Diari Summary for Gener 24, 2018 Units:  English    Metric   Both
« Previous Day
Next Day »
Diari Semanal Mensual Anual Personalitzat
  Maxima: Minima: Mijana:
Temperatura: TemperatureC °F 0.6 °F 6.4 °F
Rosada: DewpointC °F -0.6 °F 3.7 °F
Humitat: Humidity % 63 % 83 %
Velocitat del vent: WindSpeedKMH mph 0.0 mph 0.6 mph
Racha vent: WindSpeedGustKMH mph - -
Vent:- - East
Pressio: PressurehPa in 1027.0 in -
Pluja: 0.3 in    
Historical Graphs
 
 
Tabular Data for Gener 24, 2018
Time Temperature Dew Point Pressure Wind Wind Speed Wind Gust Humidity Rainfall Rate (Hourly) solar Conditions
TemperatureC °F DewpointC °F PressurehPa in Calm     Humidity % HourlyPrecipMM in SolarRadiationWatts/m^2 W/m2 Conditions
00:02 4.4 °F 2.9 °F 1031.7 in Calm     90 % 0.0 in 0.0 W/m2 CLR
00:07 4.4 °F 2.9 °F 1031.7 in Calm     90 % 0.0 in 0.0 W/m2 CLR
00:12 4.4 °F 2.9 °F 1031.7 in Calm     90 % 0.0 in 0.0 W/m2 CLR
00:17 4.4 °F 2.9 °F 1031.7 in Calm     90 % 0.0 in 0.0 W/m2 CLR
00:22 4.4 °F 2.9 °F 1031.7 in Calm     90 % 0.0 in 0.0 W/m2 CLR
00:27 4.4 °F 2.9 °F 1031.7 in Calm     90 % 0.0 in 0.0 W/m2 CLR
00:32 4.4 °F 2.9 °F 1031.7 in Calm     90 % 0.0 in 0.0 W/m2 CLR
00:37 4.4 °F 2.9 °F 1031.7 in Calm     90 % 0.0 in 0.0 W/m2 CLR
00:43 4.4 °F 2.9 °F 1031.7 in Calm     90 % 0.0 in 0.0 W/m2 CLR
00:48 4.4 °F 2.9 °F 1031.7 in Calm     90 % 0.0 in 0.0 W/m2 CLR
00:53 4.4 °F 2.9 °F 1031.7 in Calm     90 % 0.0 in 0.0 W/m2 CLR
00:58 4.4 °F 2.9 °F 1031.7 in Calm     90 % 0.0 in 0.0 W/m2 CLR
01:03 4.4 °F 3.1 °F 1031.7 in Calm     91 % 0.0 in 0.0 W/m2 CLR
01:08 3.9 °F 2.6 °F 1031.4 in Calm     91 % 0.0 in 0.0 W/m2 CLR
01:13 3.9 °F 2.4 °F 1031.4 in Calm     90 % 0.0 in 0.0 W/m2 CLR
01:23 3.9 °F 2.6 °F 1031.4 in Calm     91 % 0.0 in 0.0 W/m2 CLR
01:28 3.9 °F 2.4 °F 1031.4 in Calm     90 % 0.0 in 0.0 W/m2 CLR
01:33 3.3 °F 1.8 °F 1031.4 in Calm     90 % 0.0 in 0.0 W/m2 CLR
01:38 3.9 °F 2.4 °F 1031.4 in Calm     90 % 0.0 in 0.0 W/m2 CLR
01:43 3.9 °F 2.6 °F 1031.4 in Calm     91 % 0.0 in 0.0 W/m2 CLR
01:53 3.3 °F 2.0 °F 1031.4 in Calm     91 % 0.0 in 0.0 W/m2 CLR
01:58 3.3 °F 2.0 °F 1031.4 in Calm     91 % 0.0 in 0.0 W/m2 CLR
02:03 3.3 °F 2.0 °F 1031.4 in Calm     91 % 0.0 in 0.0 W/m2 CLR
02:08 3.9 °F 2.6 °F 1031.4 in Calm     91 % 0.0 in 0.0 W/m2 CLR
02:13 3.9 °F 2.6 °F 1031.4 in Calm     91 % 0.0 in 0.0 W/m2 CLR
02:18 3.9 °F 2.6 °F 1031.4 in Calm     91 % 0.0 in 0.0 W/m2 CLR
02:23 3.9 °F 2.6 °F 1031.4 in Calm     91 % 0.0 in 0.0 W/m2 CLR
02:28 3.9 °F 2.6 °F 1031.4 in Calm     91 % 0.0 in 0.0 W/m2 CLR
02:33 3.3 °F 2.0 °F 1031.4 in Calm     91 % 0.0 in 0.0 W/m2 CLR
02:38 3.9 °F 2.6 °F 1031.4 in Calm     91 % 0.0 in 0.0 W/m2 CLR
02:43 3.3 °F 2.0 °F 1031.4 in Calm     91 % 0.0 in 0.0 W/m2 CLR
02:48 3.3 °F 2.0 °F 1031.4 in Calm     91 % 0.0 in 0.0 W/m2 CLR
02:53 3.3 °F 2.0 °F 1031.0 in Calm     91 % 0.0 in 0.0 W/m2 CLR
03:03 2.8 °F 1.4 °F 1031.0 in Calm     91 % 0.0 in 0.0 W/m2 CLR
03:08 2.8 °F 1.4 °F 1031.0 in Calm     91 % 0.0 in 0.0 W/m2 CLR
03:13 2.8 °F 1.4 °F 1031.0 in Calm     91 % 0.0 in 0.0 W/m2 CLR
03:18 2.8 °F 1.4 °F 1031.0 in Calm     91 % 0.0 in 0.0 W/m2 CLR
03:23 2.8 °F 1.4 °F 1031.0 in Calm     91 % 0.0 in 0.0 W/m2 CLR
03:28 2.8 °F 1.4 °F 1031.0 in Calm     91 % 0.0 in 0.0 W/m2 CLR
03:33 2.8 °F 1.4 °F 1031.0 in Calm     91 % 0.0 in 0.0 W/m2 CLR
03:38 2.8 °F 1.4 °F 1031.0 in Calm     91 % 0.0 in 0.0 W/m2 CLR
03:48 2.8 °F 1.4 °F 1031.0 in Calm     91 % 0.0 in 0.0 W/m2 CLR
03:53 2.8 °F 1.4 °F 1031.0 in Calm     91 % 0.0 in 0.0 W/m2 CLR
03:58 2.8 °F 1.4 °F 1031.0 in Calm     91 % 0.0 in 0.0 W/m2 CLR
04:03 2.8 °F 1.4 °F 1031.0 in Calm     91 % 0.0 in 0.0 W/m2 CLR
04:08 2.2 °F 0.9 °F 1031.0 in Calm     91 % 0.0 in 0.0 W/m2 CLR
04:10 2.2 °F 0.9 °F 1031.0 in Calm     91 % 0.0 in 0.0 W/m2 CLR
04:15 2.2 °F 1.1 °F 1031.0 in Calm     92 % 0.0 in 0.0 W/m2 CLR
04:25 2.2 °F 1.1 °F 1031.0 in Calm     92 % 0.0 in 0.0 W/m2 CLR
04:30 2.2 °F 1.1 °F 1031.0 in Calm     92 % 0.0 in 0.0 W/m2 CLR
04:40 2.2 °F 1.1 °F 1030.7 in Calm     92 % 0.0 in 0.0 W/m2 CLR
04:45 2.2 °F 1.1 °F 1030.7 in Calm     92 % 0.0 in 0.0 W/m2 CLR
05:05 2.2 °F 1.1 °F 1030.7 in Calm     92 % 0.0 in 0.0 W/m2 CLR
05:10 2.2 °F 1.1 °F 1030.7 in Calm     92 % 0.0 in 0.0 W/m2 CLR
05:15 2.2 °F 1.1 °F 1030.7 in Calm     92 % 0.0 in 0.0 W/m2 CLR
05:20 2.2 °F 1.1 °F 1030.7 in Calm     92 % 0.0 in 0.0 W/m2 CLR
05:25 2.2 °F 0.9 °F 1030.7 in Calm     91 % 0.0 in 0.0 W/m2 CLR
05:30 2.2 °F 1.1 °F 1030.7 in Calm     92 % 0.0 in 0.0 W/m2 CLR
05:40 1.7 °F 0.5 °F 1030.7 in Calm     92 % 0.0 in 0.0 W/m2 CLR
05:50 1.7 °F 0.5 °F 1030.7 in Calm     92 % 0.0 in 0.0 W/m2 CLR
05:55 1.7 °F 0.5 °F 1030.7 in Calm     92 % 0.0 in 0.0 W/m2 CLR
06:00 1.7 °F 0.5 °F 1030.7 in Calm     92 % 0.0 in 0.0 W/m2 CLR
06:05 1.7 °F 0.5 °F 1030.7 in Calm     92 % 0.0 in 0.0 W/m2 CLR
06:10 1.7 °F 0.5 °F 1030.7 in Calm     92 % 0.0 in 0.0 W/m2 CLR
06:15 1.7 °F 0.5 °F 1030.7 in Calm     92 % 0.0 in 0.0 W/m2 CLR
06:20 1.7 °F 0.5 °F 1030.7 in Calm     92 % 0.0 in 0.0 W/m2 CLR
06:25 1.7 °F 0.5 °F 1031.0 in Calm     92 % 0.0 in 0.0 W/m2 CLR
06:30 1.1 °F -0.1 °F 1031.0 in Calm     92 % 0.0 in 0.0 W/m2 CLR
06:35 1.7 °F 0.5 °F 1031.0 in Calm     92 % 0.0 in 0.0 W/m2 CLR
06:40 1.7 °F 0.5 °F 1031.0 in Calm     92 % 0.0 in 0.0 W/m2 CLR
06:45 1.7 °F 0.5 °F 1031.0 in Calm     92 % 0.0 in 0.0 W/m2 CLR
06:50 1.7 °F 0.5 °F 1031.0 in Calm     92 % 0.0 in 0.0 W/m2 CLR
06:55 1.7 °F 0.5 °F 1031.0 in Calm     92 % 0.0 in 0.0 W/m2 CLR
07:00 1.7 °F 0.5 °F 1031.0 in Calm     92 % 0.0 in 0.0 W/m2 CLR
07:05 1.1 °F -0.1 °F 1031.0 in Calm     92 % 0.0 in 0.0 W/m2 CLR
07:10 1.1 °F -0.1 °F 1031.0 in Calm     92 % 0.0 in 0.0 W/m2 CLR
07:15 1.1 °F -0.1 °F 1031.0 in Calm     92 % 0.0 in 0.0 W/m2 CLR
07:20 1.1 °F -0.1 °F 1031.0 in Calm     92 % 0.0 in 0.0 W/m2 CLR
07:30 1.1 °F -0.1 °F 1031.0 in Calm     92 % 0.0 in 0.0 W/m2 CLR
07:35 1.1 °F -0.1 °F 1030.7 in Calm     92 % 0.0 in 0.0 W/m2 CLR
07:40 1.1 °F -0.1 °F 1030.7 in Calm     92 % 0.0 in 0.0 W/m2 CLR
07:45 1.1 °F -0.1 °F 1030.7 in Calm     92 % 0.0 in 0.0 W/m2 CLR
07:50 1.1 °F -0.1 °F 1030.7 in Calm     92 % 0.0 in 0.0 W/m2 CLR
07:55 1.1 °F -0.1 °F 1030.7 in Calm     92 % 0.0 in 0.0 W/m2 CLR
08:00 0.6 °F -0.6 °F 1030.7 in Calm     92 % 0.0 in 0.0 W/m2 CLR
08:05 1.1 °F -0.1 °F 1030.7 in Calm     92 % 0.0 in 0.0 W/m2 CLR
08:10 1.1 °F -0.1 °F 1030.7 in Calm     92 % 0.0 in 0.0 W/m2 OVC
08:15 1.1 °F -0.1 °F 1031.0 in Calm     92 % 0.0 in 0.0 W/m2 OVC
08:25 1.1 °F -0.1 °F 1031.0 in Calm     92 % 0.0 in 7.0 W/m2 BKN
08:30 1.1 °F -0.1 °F 1031.0 in Calm     92 % 0.0 in 11.0 W/m2 BKN
08:35 1.1 °F -0.1 °F 1031.0 in Calm     92 % 0.0 in 12.0 W/m2 BKN
08:40 1.1 °F 0.1 °F 1031.0 in Calm     93 % 0.0 in 16.0 W/m2 BKN
08:45 1.1 °F 0.1 °F 1031.0 in Calm     93 % 0.0 in 21.0 W/m2 BKN
08:55 1.1 °F 0.1 °F 1031.0 in Calm     93 % 0.0 in 42.0 W/m2 BKN
09:00 1.1 °F 0.1 °F 1031.0 in Calm     93 % 0.0 in 46.0 W/m2 SCT
09:05 1.1 °F 0.1 °F 1031.0 in Calm     93 % 0.0 in 63.0 W/m2 SCT
09:11 1.1 °F 0.1 °F 1031.0 in Calm     93 % 0.0 in 74.0 W/m2 FEW
09:16 1.1 °F -0.1 °F 1031.0 in Calm     92 % 0.0 in 81.0 W/m2 FEW
09:21 1.1 °F -0.1 °F 1031.0 in Calm     92 % 0.0 in 93.0 W/m2 FEW
09:26 1.7 °F 0.5 °F 1031.0 in Calm     92 % 0.0 in 100.0 W/m2 CLR
09:31 1.7 °F 0.5 °F 1031.0 in Calm     92 % 0.0 in 97.0 W/m2 CLR
09:36 2.2 °F 1.1 °F 1031.0 in Calm     92 % 0.0 in 109.0 W/m2 CLR
09:41 2.2 °F 1.1 °F 1031.0 in Calm     92 % 0.0 in 95.0 W/m2 CLR
09:46 2.8 °F 1.4 °F 1031.4 in Calm     91 % 0.0 in 167.0 W/m2 CLR
09:51 2.8 °F 1.4 °F 1031.0 in Calm     91 % 0.0 in 181.0 W/m2 CLR
09:56 3.3 °F 2.0 °F 1031.0 in Calm     91 % 0.0 in 134.0 W/m2 CLR
10:01 3.9 °F 2.6 °F 1031.0 in Calm     91 % 0.0 in 211.0 W/m2 CLR
10:06 3.9 °F 2.4 °F 1031.4 in Calm     90 % 0.0 in 223.0 W/m2 CLR
10:11 4.4 °F 2.9 °F 1031.4 in Calm     90 % 0.0 in 237.0 W/m2 CLR
10:16 4.4 °F 2.6 °F 1031.4 in Calm     88 % 0.0 in 248.0 W/m2 CLR
10:26 5.0 °F 3.0 °F 1031.0 in Calm     87 % 0.0 in 278.0 W/m2 CLR
10:31 5.6 °F 3.4 °F 1031.4 in Calm     86 % 0.0 in 294.0 W/m2 CLR
10:36 6.1 °F 3.6 °F 1031.0 in Calm     84 % 0.0 in 306.0 W/m2 CLR
10:41 6.1 °F 3.6 °F 1031.0 in Calm     84 % 0.0 in 316.0 W/m2 CLR
10:46 6.7 °F 4.0 °F 1031.0 in Calm     83 % 0.0 in 323.0 W/m2 CLR
10:51 6.7 °F 3.8 °F 1031.0 in Calm     82 % 0.0 in 338.0 W/m2 CLR
10:56 7.2 °F 4.0 °F 1031.0 in Calm     80 % 0.0 in 350.0 W/m2 CLR
11:01 7.2 °F 4.0 °F 1031.0 in Calm     80 % 0.0 in 360.0 W/m2 CLR
11:06 7.8 °F 4.6 °F 1031.0 in Calm     80 % 0.0 in 371.0 W/m2 CLR
11:11 8.3 °F 5.1 °F 1031.0 in Calm     80 % 0.0 in 380.0 W/m2 CLR
11:16 8.3 °F 4.9 °F 1031.0 in Calm     79 % 0.0 in 390.0 W/m2 CLR
11:21 8.9 °F 5.1 °F 1031.0 in Calm     77 % 0.0 in 399.0 W/m2 CLR
11:26 9.4 °F 5.6 °F 1031.0 in Calm     77 % 0.0 in 410.0 W/m2 CLR
11:31 10.0 °F 5.8 °F 1031.0 in Calm     75 % 0.0 in 422.0 W/m2 CLR
11:36 10.6 °F 6.5 °F 1031.0 in Calm     76 % 0.0 in 432.0 W/m2 CLR
11:41 10.6 °F 6.3 °F 1031.0 in Calm     75 % 0.0 in 448.0 W/m2 CLR
11:46 11.1 °F 6.8 °F 1030.7 in Calm     75 % 0.0 in 443.0 W/m2 CLR
11:51 11.1 °F 6.8 °F 1030.7 in Calm     75 % 0.0 in 461.0 W/m2 CLR
11:56 11.7 °F 7.4 °F 1030.7 in Calm     75 % 0.0 in 338.0 W/m2 CLR
12:01 11.7 °F 7.2 °F 1030.7 in ENE 5.6 mph 5.6 mph 74 % 0.0 in 475.0 W/m2 CLR
12:06 11.7 °F 7.4 °F 1030.4 in Calm     75 % 0.0 in 522.0 W/m2 CLR
12:11 11.7 °F 7.2 °F 1030.4 in ENE 1.9 mph   74 % 0.0 in 466.0 W/m2 CLR
12:16 12.2 °F 7.7 °F 1030.4 in Calm     74 % 0.0 in 313.0 W/m2 CLR
12:21 12.2 °F 7.7 °F 1030.4 in ENE 3.7 mph 3.7 mph 74 % 0.0 in 244.0 W/m2 CLR
12:26 12.2 °F 7.7 °F 1030.4 in East 5.6 mph 5.6 mph 74 % 0.0 in 313.0 W/m2 CLR
12:31 12.2 °F 7.7 °F 1030.4 in ENE 3.7 mph 3.7 mph 74 % 0.0 in 362.0 W/m2 CLR
12:36 12.2 °F 7.7 °F 1030.4 in NE 3.7 mph 3.7 mph 74 % 0.0 in 455.0 W/m2 CLR
12:41 12.2 °F 7.9 °F 1030.4 in NE 3.7 mph 3.7 mph 75 % 0.0 in 415.0 W/m2 CLR
12:46 12.2 °F 7.7 °F 1030.0 in East 3.2 mph 3.2 mph 74 % 0.0 in 468.0 W/m2 CLR
12:51 12.8 °F 8.1 °F 1030.0 in East 3.7 mph 3.7 mph 73 % 0.0 in 404.0 W/m2 CLR
12:56 12.8 °F 8.1 °F 1030.0 in East 5.6 mph 5.6 mph 73 % 0.0 in 246.0 W/m2 CLR
13:01 12.2 °F 7.5 °F 1030.0 in East 5.6 mph 5.6 mph 73 % 0.0 in 250.0 W/m2 CLR
13:06 12.2 °F 7.7 °F 1030.0 in ENE 3.7 mph 3.7 mph 74 % 0.0 in 295.0 W/m2 CLR
13:11 12.2 °F 7.5 °F 1029.7 in ENE 4.8 mph 4.8 mph 73 % 0.0 in 424.0 W/m2 CLR
13:16 12.8 °F 8.3 °F 1029.7 in Calm     74 % 0.0 in 645.0 W/m2 CLR
13:21 13.3 °F 8.8 °F 1029.7 in East 4.8 mph 4.8 mph 74 % 0.0 in 399.0 W/m2 CLR
13:26 12.8 °F 7.8 °F 1029.7 in Calm     72 % 0.0 in 315.0 W/m2 CLR
13:31 13.3 °F 8.4 °F 1029.3 in ENE 1.9 mph   72 % 0.0 in 323.0 W/m2 CLR
13:36 13.3 °F 8.6 °F 1029.3 in Calm     73 % 0.0 in 404.0 W/m2 CLR
13:41 13.3 °F 8.4 °F 1029.3 in ENE 1.9 mph 1.9 mph 72 % 0.0 in 290.0 W/m2 CLR
13:46 13.3 °F 8.4 °F 1029.0 in Calm     72 % 0.0 in 346.0 W/m2 CLR
13:51 13.3 °F 8.4 °F 1029.0 in ENE 5.6 mph 5.6 mph 72 % 0.0 in 376.0 W/m2 CLR
13:56 13.3 °F 8.4 °F 1029.0 in Calm     72 % 0.0 in 309.0 W/m2 CLR
14:01 13.3 °F 8.4 °F 1028.7 in Calm     72 % 0.0 in 485.0 W/m2 CLR
14:06 13.9 °F 8.9 °F 1028.7 in Calm     72 % 0.0 in 483.0 W/m2 CLR
14:11 13.9 °F 8.7 °F 1028.7 in Calm     71 % 0.0 in 454.0 W/m2 CLR
14:16 14.4 °F 9.2 °F 1028.3 in Calm     71 % 0.0 in 464.0 W/m2 CLR
14:21 15.0 °F 9.3 °F 1028.3 in Calm     69 % 0.0 in 464.0 W/m2 CLR
14:26 14.4 °F 9.1 °F 1028.3 in Calm     70 % 0.0 in 459.0 W/m2 CLR
14:31 15.0 °F 9.3 °F 1028.3 in Calm     69 % 0.0 in 450.0 W/m2 CLR
14:36 15.6 °F 9.7 °F 1028.3 in Calm     68 % 0.0 in 443.0 W/m2 CLR
14:41 15.6 °F 9.4 °F 1028.3 in Calm     67 % 0.0 in 434.0 W/m2 CLR
14:51 15.6 °F 9.2 °F 1028.0 in Calm     66 % 0.0 in 420.0 W/m2 CLR
14:56 15.6 °F 9.2 °F 1028.0 in Calm     66 % 0.0 in 413.0 W/m2 CLR
15:01 15.6 °F 9.2 °F 1028.0 in East 5.6 mph 5.6 mph 66 % 0.0 in 404.0 W/m2 CLR
15:06 15.6 °F 9.2 °F 1027.7 in ENE 6.4 mph 6.4 mph 66 % 0.0 in 396.0 W/m2 CLR
15:11 15.6 °F 9.2 °F 1027.7 in ENE 3.7 mph 3.7 mph 66 % 0.0 in 387.0 W/m2 CLR
15:16 15.6 °F 9.2 °F 1027.7 in NE 4.8 mph 4.8 mph 66 % 0.0 in 378.0 W/m2 CLR
15:21 15.6 °F 9.2 °F 1027.7 in East 7.4 mph 7.4 mph 66 % 0.0 in 371.0 W/m2 CLR
15:31 15.6 °F 9.2 °F 1027.7 in East 5.6 mph 5.6 mph 66 % 0.0 in 350.0 W/m2 CLR
15:36 15.6 °F 9.2 °F 1027.7 in Calm     66 % 0.0 in 339.0 W/m2 CLR
15:46 15.6 °F 9.0 °F 1027.7 in NE 3.7 mph   65 % 0.0 in 320.0 W/m2 CLR
15:51 16.1 °F 9.5 °F 1027.3 in Calm     65 % 0.0 in 308.0 W/m2 CLR
15:56 15.6 °F 9.0 °F 1027.3 in Calm     65 % 0.0 in 295.0 W/m2 CLR
16:01 16.1 °F 9.3 °F 1027.3 in Calm     64 % 0.0 in 285.0 W/m2 CLR
16:11 16.1 °F 9.3 °F 1027.3 in Calm     64 % 0.0 in 258.0 W/m2 CLR
16:16 16.1 °F 9.1 °F 1027.3 in ESE 5.6 mph 5.6 mph 63 % 0.0 in 244.0 W/m2 CLR
16:21 16.1 °F 9.1 °F 1027.3 in SE 5.6 mph 5.6 mph 63 % 0.0 in 232.0 W/m2 CLR
16:26 16.1 °F 9.1 °F 1027.3 in East 5.6 mph   63 % 0.0 in 216.0 W/m2 CLR
16:31 16.1 °F 9.1 °F 1027.3 in SE 3.7 mph 3.7 mph 63 % 0.0 in 199.0 W/m2 CLR
16:47 15.6 °F 8.6 °F 1027.3 in Calm     63 % 0.0 in 155.0 W/m2 CLR
16:57 15.6 °F 8.6 °F 1027.3 in East 1.9 mph 1.9 mph 63 % 0.0 in 125.0 W/m2 CLR
17:02 15.0 °F 8.0 °F 1027.0 in SE 3.7 mph 3.7 mph 63 % 0.0 in 111.0 W/m2 CLR
17:07 15.0 °F 8.2 °F 1027.0 in Calm     64 % 0.0 in 86.0 W/m2 CLR
17:17 14.4 °F 7.9 °F 1027.3 in East 4.8 mph 4.8 mph 65 % 0.0 in 49.0 W/m2 SCT
17:27 13.3 °F 7.1 °F 1027.3 in Calm     66 % 0.0 in 35.0 W/m2 BKN
17:32 12.8 °F 6.8 °F 1027.3 in Calm     67 % 0.0 in 26.0 W/m2 BKN
17:37 12.2 °F 6.3 °F 1027.3 in ENE 3.7 mph 3.7 mph 67 % 0.0 in 14.0 W/m2 BKN
17:42 12.2 °F 6.5 °F 1027.3 in ENE 1.9 mph 1.9 mph 68 % 0.0 in 12.0 W/m2 BKN
17:47 11.7 °F 6.2 °F 1027.3 in Calm     69 % 0.0 in 12.0 W/m2 BKN
17:52 11.7 °F 6.4 °F 1027.3 in Calm     70 % 0.0 in 11.0 W/m2 BKN
17:57 11.1 °F 5.8 °F 1027.3 in Calm     70 % 0.0 in 9.0 W/m2 BKN
18:02 11.1 °F 6.1 °F 1027.3 in Calm     71 % 0.0 in 5.0 W/m2 OVC
18:17 9.4 °F 4.8 °F 1027.3 in Calm     73 % 0.0 in 0.0 W/m2 CLR
18:22 9.4 °F 5.1 °F 1027.3 in Calm     74 % 0.0 in 0.0 W/m2 CLR
18:27 8.9 °F 4.5 °F 1027.3 in Calm     74 % 0.0 in 0.0 W/m2 CLR
18:37 8.9 °F 4.9 °F 1027.3 in Calm     76 % 0.0 in 0.0 W/m2 CLR
18:42 8.9 °F 4.9 °F 1027.3 in Calm     76 % 0.0 in 0.0 W/m2 CLR
18:47 9.4 °F 5.2 °F 1027.3 in Calm     75 % 0.0 in 0.0 W/m2 CLR
18:52 9.4 °F 5.2 °F 1027.7 in Calm     75 % 0.0 in 0.0 W/m2 CLR
18:57 9.4 °F 5.4 °F 1027.7 in Calm     76 % 0.0 in 0.0 W/m2 CLR
19:07 8.9 °F 5.3 °F 1027.7 in Calm     78 % 0.0 in 0.0 W/m2 CLR
19:12 8.9 °F 5.6 °F 1027.7 in Calm     80 % 0.0 in 0.0 W/m2 CLR
19:17 8.3 °F 5.1 °F 1027.7 in Calm     80 % 0.0 in 0.0 W/m2 CLR
19:22 7.8 °F 4.7 °F 1027.7 in Calm     81 % 0.0 in 0.0 W/m2 CLR
19:27 7.8 °F 4.7 °F 1028.0 in Calm     81 % 0.0 in 0.0 W/m2 CLR
19:37 7.2 °F 4.7 °F 1028.0 in Calm     84 % 0.0 in 0.0 W/m2 CLR
19:42 7.2 °F 4.7 °F 1028.0 in Calm     84 % 0.0 in 0.0 W/m2 CLR
19:47 7.2 °F 4.7 °F 1027.7 in Calm     84 % 0.0 in 0.0 W/m2 CLR
19:52 6.7 °F 4.3 °F 1027.7 in Calm     85 % 0.0 in 0.0 W/m2 CLR
19:57 6.7 °F 4.3 °F 1027.7 in Calm     85 % 0.0 in 0.0 W/m2 CLR
20:02 6.1 °F 3.9 °F 1027.7 in Calm     86 % 0.0 in 0.0 W/m2 CLR
20:07 6.1 °F 3.9 °F 1027.7 in Calm     86 % 0.0 in 0.0 W/m2 CLR
20:12 6.1 °F 3.9 °F 1027.7 in Calm     86 % 0.0 in 0.0 W/m2 CLR
20:17 5.6 °F 3.6 °F 1027.7 in Calm     87 % 0.0 in 0.0 W/m2 CLR
20:32 5.0 °F 3.0 °F 1027.7 in Calm     87 % 0.0 in 0.0 W/m2 CLR
20:37 5.0 °F 3.0 °F 1027.7 in Calm     87 % 0.0 in 0.0 W/m2 CLR
20:42 5.0 °F 3.0 °F 1027.7 in Calm     87 % 0.0 in 0.0 W/m2 CLR
20:47 5.0 °F 3.0 °F 1027.7 in Calm     87 % 0.0 in 0.0 W/m2 CLR
20:52 5.0 °F 3.2 °F 1027.7 in Calm     88 % 0.0 in 0.0 W/m2 CLR
21:02 5.0 °F 3.2 °F 1027.7 in Calm     88 % 0.0 in 0.0 W/m2 CLR
21:07 5.0 °F 3.2 °F 1027.7 in Calm     88 % 0.0 in 0.0 W/m2 CLR
21:12 4.4 °F 2.6 °F 1027.7 in Calm     88 % 0.0 in 0.0 W/m2 CLR
21:17 4.4 °F 2.6 °F 1027.7 in Calm     88 % 0.0 in 0.0 W/m2 CLR
21:22 3.9 °F 2.1 °F 1027.7 in Calm     88 % 0.0 in 0.0 W/m2 CLR
21:27 3.9 °F 2.1 °F 1027.7 in Calm     88 % 0.0 in 0.0 W/m2 CLR
21:32 3.9 °F 2.2 °F 1027.7 in Calm     89 % 0.0 in 0.0 W/m2 CLR
21:37 3.3 °F 1.7 °F 1027.7 in Calm     89 % 0.0 in 0.0 W/m2 CLR
21:42 3.3 °F 1.7 °F 1027.7 in Calm     89 % 0.0 in 0.0 W/m2 CLR
21:47 3.3 °F 1.7 °F 1027.7 in Calm     89 % 0.0 in 0.0 W/m2 CLR
21:52 3.9 °F 2.2 °F 1027.7 in Calm     89 % 0.0 in 0.0 W/m2 CLR
21:57 3.9 °F 2.2 °F 1027.7 in Calm     89 % 0.0 in 0.0 W/m2 CLR
22:02 3.9 °F 2.4 °F 1027.7 in Calm     90 % 0.0 in 0.0 W/m2 CLR
22:08 3.9 °F 2.4 °F 1027.3 in Calm     90 % 0.0 in 0.0 W/m2 CLR
22:13 3.9 °F 2.2 °F 1027.7 in Calm     89 % 0.0 in 0.0 W/m2 CLR
22:18 3.9 °F 2.2 °F 1027.7 in Calm     89 % 0.0 in 0.0 W/m2 CLR
22:23 3.3 °F 1.8 °F 1027.7 in Calm     90 % 0.0 in 0.0 W/m2 CLR
22:28 3.3 °F 1.8 °F 1027.7 in Calm     90 % 0.0 in 0.0 W/m2 CLR
22:33 3.3 °F 1.8 °F 1027.7 in Calm     90 % 0.0 in 0.0 W/m2 CLR
22:38 3.3 °F 1.8 °F 1027.7 in Calm     90 % 0.0 in 0.0 W/m2 CLR
22:43 3.9 °F 2.4 °F 1027.7 in Calm     90 % 0.0 in 0.0 W/m2 CLR
22:48 3.9 °F 2.4 °F 1027.7 in Calm     90 % 0.0 in 0.0 W/m2 CLR
22:53 3.3 °F 1.8 °F 1027.7 in Calm     90 % 0.0 in 0.0 W/m2 CLR
22:58 3.3 °F 1.8 °F 1027.7 in Calm     90 % 0.0 in 0.0 W/m2 CLR
23:03 3.3 °F 1.8 °F 1027.7 in Calm     90 % 0.0 in 0.0 W/m2 CLR
23:08 2.8 °F 1.3 °F 1027.3 in Calm     90 % 0.0 in 0.0 W/m2 CLR
23:13 2.8 °F 1.3 °F 1027.7 in Calm     90 % 0.0 in 0.0 W/m2 CLR
23:18 2.8 °F 1.3 °F 1027.7 in Calm     90 % 0.3 in 0.0 W/m2 RA
23:23 2.8 °F 1.4 °F 1027.7 in Calm     91 % 0.3 in 0.0 W/m2 CLR
23:28 2.8 °F 1.4 °F 1027.7 in Calm     91 % 0.3 in 0.0 W/m2 CLR
23:33 2.2 °F 0.9 °F 1027.7 in Calm     91 % 0.3 in 0.0 W/m2 CLR
23:38 2.2 °F 0.9 °F 1027.7 in Calm     91 % 0.3 in 0.0 W/m2 CLR
23:43 2.2 °F 0.9 °F 1027.7 in Calm     91 % 0.3 in 0.0 W/m2 CLR
23:48 1.7 °F 0.3 °F 1027.7 in Calm     91 % 0.3 in 0.0 W/m2 CLR
23:53 1.7 °F 0.3 °F 1027.7 in Calm     91 % 0.3 in 0.0 W/m2 CLR
23:58 1.7 °F 0.3 °F 1027.7 in Calm     91 % 0.3 in 0.0 W/m2 CLR
Lo Temps de Massalio
Compliments of Weather Underground - 1 mb